Elk City, OK

1:12 AM CST on December 21, 2014 (GMT -0600)
Clinton-Sherman | Change Station
CLOSE
Current Station
Airport
Location: Clinton-Sherman,
Elevation: 1923 ft
Nearby Weather Stations

Elev 1923 ft 35.34 °N, 99.20 °W | Updated 8 minutes ago

Fog
Fog
40 °F
Feels Like 31 °F
N
16
Wind Variable Wind from South

Today
High -- | Low -- °F
--% Chance of Precip.
Yesterday
High -- | Low -- °F
Precip. -- in
7:42 AM 5:28 PM
Waning Crescent, 1% visible
Pressure 30.07 in
Visibility 2.5 miles
Clouds Overcast 200 ft
Windchill 31 °F
Dew Point 39 °F
Humidity 97%
Rainfall 0.00 in
Snow Depth Not available.
UV 0 out of 12
Pollen 7.40 out of 12
Air Quality Not available.
Flu Activity Not available.
SPECI KCSM 210704Z AUTO 18014KT 2 1/2SM BR OVC002 04/04 A3007 RMK AO2 T00440039

More Conditions Fewer Conditions

Pressure 30.07 in
Visibility 2.5 miles
Clouds Overcast 200 ft
Windchill 31 °F
Dew Point 39 °F
Humidity 97%
Rainfall 0.00 in
Snow Depth Not available.
UV 0 out of 12
Pollen 7.40 out of 12
Air Quality Not available.
Flu Activity Not available.
SPECI KCSM 210704Z AUTO 18014KT 2 1/2SM BR OVC002 04/04 A3007 RMK AO2 T00440039

More Conditions Fewer Conditions

10-Day Weather Forecast

Almanac

Astronomy

Dec. 21, 2014 Rise Set
Actual Time
Civil Twilight
Nautical Twilight
Astronomical Twilight
Moon
Length of Visible Light
Length of Day
Tomorrow will be .
, % of the Moon is Illuminated

Today's Extremes

State Highs State Lows

Community

WunderPhotos

Upload Photos

1,779,362 photos uploaded!

WunderBlogs® & News

Nearby

Air Quality

  Air Quality AQ Index Pollutant
Not available.

Snow Depth

Station Depth Elevation

Earthquake Activity

City Distance Mag. Time & Date
Minimum magnitude displayed is 2.5.

Coastal Water Temperatures

Place Temperature

Nearby Weather Stations